In Rescue
 
Open Full Screen Window  High Contrast Mode
Wind Gusting 00 knots
15
April 02, 2020 10:50 PM CDT
Present Weather: Unknown Precipitation
Weather Information
Wind Direction
  270 °
Wind Speed
  15 kt (17 mph)
Wind Gust
  00 kt (0 mph)
Altimeter
29.97 in
Visibility
5 SM
Temperature
01° C
34° F
Dewpoint
00° C
32° F
Humidity
93%
1hr Rain Fall
00.06 in.
24hr Rain Fall
00.31 in.
Sky Condition
Overcast @ 1,300 ft
Broken @ 600 ft
IFR

METAR KHCD 030350Z AUTO 27015KT 5SM UP BKN006 OVC013 01/00 A2997 RMK AO2 P0006 T00050002

FAA Disclaimer: The data displayed is for advisory purposes only and is not to be used for flight planning or operations.